Time;durP1;ratioP1;P1;durP2;ratioP2;P2;SDS_P1;SDS_P2;PMS_P1;PMS_P2;Temp;Humidity;BMP_temperature;BMP_pressure;BME280_temperature;BME280_humidity;BME280_pressure;Samples;Min_cycle;Max_cycle;Signal;HPM_P1;HPM_P2
2022/03/10 00:01:10;;;;;;;18.70;12.48;;;2.40;99.90;;;;;;6374864;22;20026;-90
2022/03/10 00:03:35;;;;;;;22.23;13.63;;;2.40;99.90;;;;;;6375144;22;20018;-92
2022/03/10 00:06:01;;;;;;;20.87;13.07;;;2.40;99.90;;;;;;6374871;22;20442;-89
2022/03/10 00:08:27;;;;;;;21.98;13.05;;;2.40;99.90;;;;;;6375011;22;20021;-91
2022/03/10 00:10:52;;;;;;;22.02;13.40;;;2.30;99.90;;;;;;6376265;22;20366;-96
2022/03/10 00:13:18;;;;;;;18.63;12.57;;;2.30;99.90;;;;;;6404986;22;20098;-90
2022/03/10 00:15:44;;;;;;;19.50;12.37;;;2.30;99.90;;;;;;6377891;22;20458;-87
2022/03/10 00:18:10;;;;;;;19.50;13.45;;;2.20;99.90;;;;;;6405448;22;20022;-87
2022/03/10 00:20:36;;;;;;;18.88;12.68;;;2.20;99.90;;;;;;6378069;22;20029;-93
2022/03/10 00:23:02;;;;;;;20.10;12.63;;;2.10;99.90;;;;;;6389256;22;20058;-93
2022/03/10 00:25:27;;;;;;;20.40;13.05;;;2.10;99.90;;;;;;6416760;22;20312;-88
2022/03/10 00:27:53;;;;;;;17.97;13.70;;;2.10;99.90;;;;;;6405311;22;20014;-91
2022/03/10 00:30:19;;;;;;;18.40;13.27;;;2.10;99.90;;;;;;6374442;22;20018;-88
2022/03/10 00:32:47;;;;;;;20.92;14.13;;;2.10;99.90;;;;;;6374610;22;20450;-93
2022/03/10 00:35:21;;;;;;;22.85;13.52;;;2.10;99.90;;;;;;6374433;22;20022;-95
2022/03/10 00:37:47;;;;;;;19.92;13.60;;;2.10;99.90;;;;;;6374623;22;20454;-93
2022/03/10 00:40:15;;;;;;;21.10;13.63;;;2.00;99.90;;;;;;6374577;22;20018;-96
2022/03/10 00:42:41;;;;;;;20.33;12.55;;;2.00;99.90;;;;;;6374904;22;20549;-94
2022/03/10 00:45:08;;;;;;;21.45;13.63;;;2.00;99.90;;;;;;6375288;22;20049;-93
2022/03/10 00:47:34;;;;;;;19.73;14.18;;;2.00;99.90;;;;;;6374425;22;20530;-87
2022/03/10 00:50:01;;;;;;;22.05;13.02;;;2.00;99.90;;;;;;6374345;22;20064;-89
2022/03/10 00:52:27;;;;;;;19.23;13.73;;;2.00;99.90;;;;;;6374353;22;20026;-86
2022/03/10 00:54:53;;;;;;;21.02;13.38;;;2.00;99.90;;;;;;6374426;22;20072;-90
2022/03/10 00:57:19;;;;;;;21.35;13.52;;;2.00;99.90;;;;;;6374769;22;20021;-92
2022/03/10 00:59:45;;;;;;;20.70;13.55;;;2.00;99.90;;;;;;6374412;22;20022;-93
2022/03/10 01:02:11;;;;;;;22.00;13.88;;;2.00;99.90;;;;;;6374460;22;20101;-93
2022/03/10 01:04:37;;;;;;;20.57;14.23;;;2.00;99.90;;;;;;6402897;22;20043;-92
2022/03/10 01:07:03;;;;;;;21.15;14.07;;;1.90;99.90;;;;;;6374279;22;20134;-93
2022/03/10 01:09:29;;;;;;;20.93;14.53;;;1.80;99.90;;;;;;6374394;22;20053;-95
2022/03/10 01:11:54;;;;;;;22.07;14.67;;;1.80;99.90;;;;;;6374289;22;20029;-94
2022/03/10 01:14:20;;;;;;;22.25;14.65;;;1.80;99.90;;;;;;6374619;22;20037;-94
2022/03/10 01:16:46;;;;;;;21.83;15.07;;;1.80;99.90;;;;;;6402635;22;20385;-95
2022/03/10 01:19:12;;;;;;;21.17;14.83;;;1.80;99.90;;;;;;6375922;22;20018;-94
2022/03/10 01:21:37;;;;;;;24.50;14.38;;;1.80;99.90;;;;;;6348805;22;20077;-94
2022/03/10 01:24:03;;;;;;;22.15;14.73;;;1.80;99.90;;;;;;6349181;22;20049;-89
2022/03/10 01:26:29;;;;;;;22.77;16.05;;;1.80;99.90;;;;;;6374717;22;20017;-87
2022/03/10 01:28:55;;;;;;;21.85;15.40;;;1.80;99.90;;;;;;6374137;22;20097;-91
2022/03/10 01:31:20;;;;;;;22.90;15.07;;;1.80;99.90;;;;;;6374385;22;20032;-95
2022/03/10 01:33:46;;;;;;;21.92;14.80;;;1.70;99.90;;;;;;6374394;22;20030;-91
2022/03/10 01:36:12;;;;;;;23.88;15.10;;;1.70;99.90;;;;;;6374341;22;20347;-95
2022/03/10 01:38:39;;;;;;;25.67;15.48;;;1.60;99.90;;;;;;6374828;22;20017;-89
2022/03/10 01:41:09;;;;;;;20.35;13.90;;;1.60;99.90;;;;;;6374586;22;20018;-95
2022/03/10 01:44:04;;;;;;;23.05;14.50;;;1.60;99.90;;;;;;6404056;22;20014;-92
2022/03/10 01:46:30;;;;;;;20.23;14.15;;;1.60;99.90;;;;;;6349815;22;20053;-94
2022/03/10 01:48:56;;;;;;;21.33;14.07;;;1.50;99.90;;;;;;6376408;22;20051;-92
2022/03/10 01:51:23;;;;;;;25.13;14.70;;;1.50;99.90;;;;;;6350133;22;20049;-96
2022/03/10 01:53:50;;;;;;;;;;;1.50;99.90;;;;;;6352531;22;20747;-90
2022/03/10 01:56:17;;;;;;;20.33;13.10;;;1.50;99.90;;;;;;6354762;22;19914;-95
2022/03/10 01:58:43;;;;;;;;;;;1.50;99.90;;;;;;6383455;22;20070;-92
2022/03/10 02:03:45;;;;;;;18.90;13.32;;;1.50;99.90;;;;;;6357758;22;20031;-86
2022/03/10 02:06:11;;;;;;;22.95;14.48;;;1.50;99.90;;;;;;6318845;22;20019;-90
2022/03/10 02:11:22;;;;;;;21.77;14.20;;;1.50;99.90;;;;;;6345146;22;20324;-91
2022/03/10 02:13:48;;;;;;;21.47;13.50;;;1.40;99.90;;;;;;6318503;22;20018;-93
2022/03/10 02:19:05;;;;;;;19.35;13.10;;;1.40;99.90;;;;;;6345256;22;20019;-93
2022/03/10 02:21:32;;;;;;;20.00;13.95;;;1.40;99.90;;;;;;6344415;22;20385;-88
2022/03/10 02:23:57;;;;;;;21.95;13.25;;;1.30;99.90;;;;;;6344500;22;20338;-87
2022/03/10 02:26:23;;;;;;;21.15;14.27;;;1.30;99.90;;;;;;6318127;22;20042;-87
2022/03/10 02:28:49;;;;;;;19.38;13.43;;;1.20;99.90;;;;;;6343903;22;20022;-84
2022/03/10 02:31:15;;;;;;;21.88;13.82;;;1.20;99.90;;;;;;6317772;22;20014;-91
2022/03/10 02:33:41;;;;;;;19.05;12.93;;;1.10;99.90;;;;;;6318298;22;20335;-91
2022/03/10 02:36:07;;;;;;;22.27;12.82;;;1.10;99.90;;;;;;6372043;22;20054;-94
2022/03/10 02:38:33;;;;;;;20.38;13.70;;;0.90;99.90;;;;;;6344348;22;20383;-88
2022/03/10 02:40:59;;;;;;;19.27;13.43;;;0.90;99.90;;;;;;6344688;22;20025;-89
2022/03/10 02:43:24;;;;;;;21.17;12.75;;;0.80;99.90;;;;;;6347848;22;20045;-95
2022/03/10 02:45:51;;;;;;;20.27;13.70;;;0.80;99.90;;;;;;6348804;22;20049;-89
2022/03/10 02:48:17;;;;;;;20.17;13.35;;;0.80;99.90;;;;;;6321541;22;20022;-91
2022/03/10 02:50:45;;;;;;;21.88;13.93;;;0.80;99.90;;;;;;6344338;22;20467;-93
2022/03/10 02:53:15;;;;;;;;;;;0.80;99.90;;;;;;6372065;22;20018;-94
2022/03/10 02:55:43;;;;;;;21.77;13.07;;;0.80;99.90;;;;;;6344212;22;19921;-93
2022/03/10 02:58:09;;;;;;;19.42;12.70;;;0.80;99.90;;;;;;6344153;22;20033;-89
2022/03/10 03:00:34;;;;;;;21.88;13.15;;;0.80;99.90;;;;;;6344210;22;20018;-89
2022/03/10 03:03:00;;;;;;;20.13;12.93;;;0.80;99.90;;;;;;6344016;22;20093;-89
2022/03/10 03:05:25;;;;;;;18.75;12.98;;;0.80;99.90;;;;;;6344462;22;20019;-93
2022/03/10 03:07:51;;;;;;;20.23;13.45;;;0.80;99.90;;;;;;6343729;22;20106;-93
2022/03/10 03:10:17;;;;;;;18.23;12.63;;;0.80;99.90;;;;;;6343679;22;20050;-89
2022/03/10 03:12:48;;;;;;;19.67;12.57;;;0.80;99.90;;;;;;6343752;22;20376;-91
2022/03/10 03:15:15;;;;;;;18.83;13.02;;;0.80;99.90;;;;;;6317676;22;20075;-90
2022/03/10 03:17:41;;;;;;;21.45;13.15;;;0.80;99.90;;;;;;6343599;22;20021;-91
2022/03/10 03:20:09;;;;;;;19.90;13.40;;;0.80;99.90;;;;;;6350183;22;20018;-88
2022/03/10 03:22:35;;;;;;;22.05;13.23;;;0.80;99.90;;;;;;6354920;22;20018;-91
2022/03/10 03:25:01;;;;;;;20.95;13.35;;;0.70;99.90;;;;;;6350902;22;20105;-88
2022/03/10 03:27:26;;;;;;;23.00;13.75;;;0.70;99.90;;;;;;6353105;22;20022;-90
2022/03/10 03:29:52;;;;;;;20.13;13.10;;;0.70;99.90;;;;;;6322455;22;20015;-88
2022/03/10 03:32:18;;;;;;;20.05;13.25;;;0.70;99.90;;;;;;6347300;22;20041;-88
2022/03/10 03:34:43;;;;;;;21.27;12.98;;;0.70;99.90;;;;;;6374918;22;20014;-92
2022/03/10 03:37:09;;;;;;;17.88;12.40;;;0.70;99.90;;;;;;6371130;22;20324;-88
2022/03/10 03:39:35;;;;;;;20.02;13.93;;;0.60;99.90;;;;;;6343475;22;20050;-95
2022/03/10 03:42:00;;;;;;;18.58;12.80;;;0.60;99.90;;;;;;6369811;22;20355;-90
2022/03/10 03:44:26;;;;;;;22.08;13.57;;;0.70;99.90;;;;;;6344392;22;20447;-89
2022/03/10 03:46:52;;;;;;;21.10;13.07;;;0.70;99.90;;;;;;6371349;22;20097;-92
2022/03/10 03:49:18;;;;;;;20.63;13.50;;;0.70;99.90;;;;;;6343723;22;20022;-91
2022/03/10 03:51:44;;;;;;;20.65;13.52;;;0.70;99.90;;;;;;6343500;22;20390;-91
2022/03/10 03:54:09;;;;;;;21.85;13.77;;;0.70;99.90;;;;;;6371180;22;20064;-93
2022/03/10 03:56:37;;;;;;;20.63;13.52;;;0.70;99.90;;;;;;6343270;22;20022;-94
2022/03/10 03:59:03;;;;;;;21.42;12.90;;;0.70;99.90;;;;;;6371170;22;20025;-91
2022/03/10 04:01:29;;;;;;;19.60;13.47;;;0.70;99.90;;;;;;6344089;22;20058;-86
2022/03/10 04:03:55;;;;;;;21.75;13.82;;;0.70;99.90;;;;;;6353113;22;20022;-85
2022/03/10 04:06:21;;;;;;;22.08;13.68;;;0.70;99.90;;;;;;6350672;22;20028;-94
2022/03/10 04:08:47;;;;;;;21.58;13.95;;;0.70;99.90;;;;;;6345829;22;20454;-93
2022/03/10 04:11:13;;;;;;;19.83;12.80;;;0.60;99.90;;;;;;6344338;22;20088;-91
2022/03/10 04:13:39;;;;;;;18.23;12.55;;;0.60;99.90;;;;;;6371082;22;20025;-88
2022/03/10 04:16:06;;;;;;;20.80;13.32;;;0.60;99.90;;;;;;6369609;22;20355;-91
2022/03/10 04:18:32;;;;;;;21.83;13.45;;;0.60;99.90;;;;;;6342986;22;20054;-90
2022/03/10 04:20:59;;;;;;;19.27;13.23;;;0.50;99.90;;;;;;6343277;22;20018;-91
2022/03/10 04:23:26;;;;;;;;;;;0.40;99.90;;;;;;6343784;22;20059;-86
2022/03/10 04:25:52;;;;;;;21.98;12.85;;;0.40;99.90;;;;;;6343619;22;20363;-92
2022/03/10 04:28:18;;;;;;;19.98;12.98;;;0.30;99.90;;;;;;6373186;22;20021;-87
2022/03/10 04:30:44;;;;;;;21.98;14.38;;;0.30;99.90;;;;;;6351619;22;20019;-93
2022/03/10 04:33:10;;;;;;;20.33;12.60;;;0.20;99.90;;;;;;6380828;22;20073;-85
2022/03/10 04:35:35;;;;;;;23.60;13.27;;;0.20;99.90;;;;;;6353202;22;20100;-93
2022/03/10 04:38:01;;;;;;;21.65;13.88;;;0.10;99.90;;;;;;6317723;22;20026;-89
2022/03/10 04:40:28;;;;;;;21.60;13.73;;;0.10;99.90;;;;;;6343249;22;20018;-89
2022/03/10 04:42:54;;;;;;;19.63;12.82;;;0.10;99.90;;;;;;6317145;22;20028;-92
2022/03/10 04:45:21;;;;;;;21.33;14.07;;;0.10;99.90;;;;;;6343194;22;20110;-92
2022/03/10 04:47:46;;;;;;;23.67;14.15;;;0.10;99.90;;;;;;6343109;22;20022;-87
2022/03/10 04:50:14;;;;;;;22.17;14.13;;;0.10;99.90;;;;;;6372540;22;20019;-95
2022/03/10 04:52:40;;;;;;;21.70;13.35;;;0.10;99.90;;;;;;6345362;22;20014;-90
2022/03/10 04:55:07;;;;;;;19.67;13.30;;;0.10;99.90;;;;;;6372736;22;20018;-92
2022/03/10 04:57:34;;;;;;;17.30;11.95;;;0.10;99.90;;;;;;6345570;22;20096;-95
2022/03/10 04:59:59;;;;;;;20.13;13.25;;;0.10;99.90;;;;;;6346493;22;20097;-93
2022/03/10 05:02:25;;;;;;;21.23;14.07;;;0.10;99.90;;;;;;6346787;22;20018;-96
2022/03/10 05:04:51;;;;;;;21.73;13.27;;;0.20;99.90;;;;;;6373941;22;20057;-90
2022/03/10 05:07:17;;;;;;;19.17;12.82;;;0.20;99.90;;;;;;6371394;22;20046;-90
2022/03/10 05:09:42;;;;;;;20.43;13.63;;;0.20;99.90;;;;;;6349317;22;20022;-90
2022/03/10 05:12:09;;;;;;;20.08;13.40;;;0.20;99.90;;;;;;6348885;22;20025;-83
2022/03/10 05:14:37;;;;;;;17.95;12.68;;;0.20;99.90;;;;;;6360676;22;20022;-83
2022/03/10 05:17:12;;;;;;;20.48;13.38;;;0.20;99.90;;;;;;6385620;22;20072;-84
2022/03/10 05:19:38;;;;;;;22.10;14.38;;;0.20;99.90;;;;;;6347024;22;20018;-87
2022/03/10 05:22:04;;;;;;;20.95;13.55;;;0.20;99.90;;;;;;6347395;22;20015;-87
2022/03/10 05:24:29;;;;;;;22.35;13.27;;;0.20;99.90;;;;;;6372980;22;20022;-89
2022/03/10 05:27:12;;;;;;;20.65;13.18;;;0.20;99.90;;;;;;6344615;22;20026;-91
2022/03/10 05:29:46;;;;;;;24.25;14.00;;;0.20;99.90;;;;;;6345477;22;20412;-88
2022/03/10 05:32:12;;;;;;;22.05;13.05;;;0.20;99.90;;;;;;6348645;22;20097;-92
2022/03/10 05:34:38;;;;;;;23.05;13.82;;;0.20;99.90;;;;;;6374134;22;20041;-87
2022/03/10 05:37:04;;;;;;;23.00;13.15;;;0.20;99.90;;;;;;6347741;22;20018;-88
2022/03/10 05:39:29;;;;;;;21.13;12.73;;;0.10;99.90;;;;;;6318596;22;20010;-90
2022/03/10 05:41:55;;;;;;;19.50;13.00;;;0.10;99.90;;;;;;6318036;22;20328;-94
2022/03/10 05:44:33;;;;;;;21.05;13.40;;;0.20;99.90;;;;;;6344601;22;20045;-91
2022/03/10 05:47:17;;;;;;;21.23;13.15;;;0.10;99.90;;;;;;6344331;22;20015;-89
2022/03/10 05:49:49;;;;;;;21.80;12.80;;;0.20;99.90;;;;;;6344673;22;20010;-86
2022/03/10 05:52:15;;;;;;;20.08;13.55;;;0.20;99.90;;;;;;6344088;22;20401;-89
2022/03/10 05:54:41;;;;;;;19.93;13.43;;;0.20;99.90;;;;;;6318285;22;20018;-90
2022/03/10 05:57:08;;;;;;;19.98;13.43;;;0.30;99.90;;;;;;6343796;22;20250;-88
2022/03/10 05:59:33;;;;;;;23.10;13.33;;;0.40;99.90;;;;;;6344044;22;20021;-87
2022/03/10 06:01:59;;;;;;;19.83;13.73;;;0.30;99.90;;;;;;6343864;22;20331;-86
2022/03/10 06:04:34;;;;;;;19.48;13.30;;;0.30;99.90;;;;;;6317541;22;20053;-90
2022/03/10 06:07:12;;;;;;;21.38;12.13;;;0.30;99.90;;;;;;6344447;22;20026;-87
2022/03/10 06:10:12;;;;;;;22.88;13.30;;;0.30;99.90;;;;;;6350307;22;20018;-84
2022/03/10 06:12:37;;;;;;;19.48;12.70;;;0.20;99.90;;;;;;6351500;22;20023;-84
2022/03/10 06:15:06;;;;;;;21.30;13.07;;;0.20;99.90;;;;;;6347359;22;20067;-90
2022/03/10 06:17:32;;;;;;;22.60;12.85;;;0.20;99.90;;;;;;6345551;22;20018;-91
2022/03/10 06:19:58;;;;;;;21.48;13.02;;;0.20;99.90;;;;;;6321063;22;20025;-88
2022/03/10 06:22:29;;;;;;;19.83;13.18;;;0.20;99.90;;;;;;6344093;22;20328;-90
2022/03/10 06:24:56;;;;;;;21.77;13.82;;;0.20;99.90;;;;;;6342877;22;20018;-86
2022/03/10 06:27:22;;;;;;;24.20;13.63;;;0.20;99.90;;;;;;6340926;22;20022;-86
2022/03/10 06:29:48;;;;;;;20.95;13.32;;;0.20;99.90;;;;;;6345602;22;20018;-88
2022/03/10 06:32:16;;;;;;;22.83;12.77;;;0.30;99.90;;;;;;6348140;22;20055;-88
2022/03/10 06:34:42;;;;;;;19.83;13.20;;;0.30;99.90;;;;;;6346417;22;20023;-90
2022/03/10 06:37:08;;;;;;;22.77;14.18;;;0.40;99.90;;;;;;6345159;22;20025;-88
2022/03/10 06:39:34;;;;;;;23.50;15.18;;;0.40;99.90;;;;;;6347684;22;20093;-90
2022/03/10 06:42:02;;;;;;;19.85;12.40;;;0.40;99.90;;;;;;6318587;22;20019;-93
2022/03/10 06:44:29;;;;;;;19.67;13.52;;;0.50;99.90;;;;;;6370766;22;20014;-86
2022/03/10 06:46:54;;;;;;;20.20;12.80;;;0.50;99.90;;;;;;6371401;22;20025;-88
2022/03/10 06:49:21;;;;;;;21.45;12.52;;;0.50;99.90;;;;;;6371165;22;20022;-92
2022/03/10 06:51:48;;;;;;;20.73;13.52;;;0.60;99.90;;;;;;6344853;22;20463;-88
2022/03/10 06:54:14;;;;;;;;;;;0.60;99.90;;;;;;6372881;22;20021;-88
2022/03/10 06:56:39;;;;;;;18.73;12.15;;;0.70;99.90;;;;;;6372158;22;19914;-87
2022/03/10 06:59:06;;;;;;;24.92;13.60;;;0.70;99.90;;;;;;6372760;22;20019;-92
2022/03/10 07:01:32;;;;;;;21.52;13.32;;;0.80;99.90;;;;;;6344067;22;20049;-89
2022/03/10 07:03:59;;;;;;;22.65;12.90;;;1.00;99.90;;;;;;6371411;22;20093;-95
2022/03/10 07:06:25;;;;;;;22.33;13.40;;;1.20;99.90;;;;;;6343761;22;20516;-95
2022/03/10 07:08:51;;;;;;;19.67;13.10;;;1.30;99.90;;;;;;6371689;22;20022;-92
2022/03/10 07:11:18;;;;;;;20.83;13.60;;;1.40;99.90;;;;;;6377084;22;20080;-91
2022/03/10 07:13:44;;;;;;;;;;;1.50;99.90;;;;;;6378416;22;20252;-88
2022/03/10 07:16:10;;;;;;;24.55;13.50;;;1.50;99.90;;;;;;6349240;22;19921;-94
2022/03/10 07:18:36;;;;;;;23.73;14.05;;;1.60;99.90;;;;;;6346260;22;20019;-92
2022/03/10 07:21:04;;;;;;;20.65;13.93;;;1.80;99.90;;;;;;6345360;22;20025;-88
2022/03/10 07:23:30;;;;;;;21.10;13.07;;;2.10;99.90;;;;;;6318560;22;20022;-89
2022/03/10 07:25:55;;;;;;;21.40;13.75;;;2.40;99.90;;;;;;6373996;22;20408;-91
2022/03/10 07:28:21;;;;;;;21.33;14.10;;;2.60;99.90;;;;;;6320160;22;20025;-88
2022/03/10 07:30:47;;;;;;;19.73;13.50;;;2.70;99.90;;;;;;6344811;22;20097;-88
2022/03/10 07:33:12;;;;;;;22.08;14.07;;;2.60;99.90;;;;;;6344265;22;20023;-85
2022/03/10 07:35:38;;;;;;;21.17;14.00;;;2.60;99.90;;;;;;6373534;22;20098;-87
2022/03/10 07:38:04;;;;;;;22.52;13.82;;;2.70;99.90;;;;;;6373372;22;20095;-93
2022/03/10 07:40:30;;;;;;;20.00;13.52;;;2.70;99.90;;;;;;6371846;22;20026;-90
2022/03/10 07:42:55;;;;;;;21.52;14.60;;;2.70;99.90;;;;;;6344116;22;20094;-86
2022/03/10 07:45:21;;;;;;;21.63;14.70;;;2.70;99.90;;;;;;6343860;22;20077;-90
2022/03/10 07:47:47;;;;;;;20.17;13.25;;;2.80;99.90;;;;;;6344094;22;20053;-86
2022/03/10 07:50:13;;;;;;;23.00;13.77;;;2.90;99.90;;;;;;6344947;22;20080;-86
2022/03/10 07:52:40;;;;;;;20.60;14.20;;;2.90;99.90;;;;;;6372391;22;20022;-89
2022/03/10 07:55:08;;;;;;;21.20;14.15;;;3.00;99.90;;;;;;6346254;22;20053;-86
2022/03/10 07:57:35;;;;;;;21.63;13.85;;;3.10;99.90;;;;;;6344622;22;20017;-92
2022/03/10 08:00:04;;;;;;;20.10;13.88;;;3.10;99.90;;;;;;6344073;22;20447;-88
2022/03/10 08:02:30;;;;;;;21.15;14.70;;;3.20;99.90;;;;;;6317545;22;20451;-88
2022/03/10 08:04:56;;;;;;;21.60;13.93;;;3.20;99.90;;;;;;6370725;22;20022;-87
2022/03/10 08:07:22;;;;;;;25.80;13.88;;;3.30;99.90;;;;;;6371121;22;20072;-84
2022/03/10 08:09:48;;;;;;;19.27;13.38;;;3.40;99.90;;;;;;6370928;22;20018;-92
2022/03/10 08:12:13;;;;;;;20.50;13.90;;;3.50;99.90;;;;;;6371065;22;20029;-88
2022/03/10 08:14:39;;;;;;;22.60;13.82;;;3.60;99.90;;;;;;6343274;22;20022;-92
2022/03/10 08:17:05;;;;;;;21.60;13.83;;;3.70;99.90;;;;;;6343297;22;20110;-91
2022/03/10 08:19:31;;;;;;;23.37;13.73;;;3.70;99.90;;;;;;6343065;22;20104;-92
2022/03/10 08:21:57;;;;;;;22.08;13.95;;;3.80;99.90;;;;;;6343344;22;20026;-89
2022/03/10 08:24:23;;;;;;;25.05;14.75;;;4.00;99.90;;;;;;6370904;22;20331;-88
2022/03/10 08:26:48;;;;;;;20.88;14.00;;;4.00;99.90;;;;;;6318317;22;20101;-84
2022/03/10 08:29:14;;;;;;;20.27;13.13;;;4.10;99.90;;;;;;6342967;22;20022;-89
2022/03/10 08:31:41;;;;;;;19.33;13.43;;;4.20;99.90;;;;;;6343093;22;20019;-85
2022/03/10 08:34:07;;;;;;;20.83;13.95;;;4.30;99.90;;;;;;6370604;22;20026;-89
2022/03/10 08:36:32;;;;;;;20.83;14.30;;;4.30;99.90;;;;;;6316729;22;20010;-87
2022/03/10 08:38:59;;;;;;;19.80;13.32;;;4.40;99.90;;;;;;6343210;22;20091;-85
2022/03/10 08:41:25;;;;;;;19.30;13.15;;;4.50;99.90;;;;;;6316746;22;20458;-85
2022/03/10 08:43:51;;;;;;;20.25;13.55;;;4.50;99.90;;;;;;6370469;22;20018;-89
2022/03/10 08:46:17;;;;;;;20.65;12.88;;;4.70;99.90;;;;;;6343192;22;20022;-88
2022/03/10 08:48:44;;;;;;;21.98;14.25;;;4.80;99.90;;;;;;6370664;22;20018;-88
2022/03/10 08:51:10;;;;;;;22.15;14.18;;;4.80;99.90;;;;;;6369663;22;20471;-91
2022/03/10 08:53:36;;;;;;;22.60;13.90;;;5.00;99.90;;;;;;6341794;22;20068;-88
2022/03/10 08:56:04;;;;;;;23.87;14.13;;;5.10;99.90;;;;;;6316988;22;20404;-93
2022/03/10 08:58:30;;;;;;;20.52;14.00;;;5.20;99.90;;;;;;6343075;22;20046;-90
2022/03/10 09:00:55;;;;;;;20.55;14.20;;;5.30;99.90;;;;;;6370862;22;20029;-89
2022/03/10 09:03:21;;;;;;;20.73;13.47;;;5.50;99.90;;;;;;6342761;22;20545;-86
2022/03/10 09:05:47;;;;;;;21.63;13.83;;;5.60;99.90;;;;;;6370394;22;20019;-85
2022/03/10 09:08:13;;;;;;;21.10;14.37;;;5.70;99.90;;;;;;6343094;22;20018;-91
2022/03/10 09:10:40;;;;;;;19.45;12.65;;;5.80;99.90;;;;;;6371145;22;20493;-92
2022/03/10 09:13:06;;;;;;;19.83;13.05;;;5.90;99.90;;;;;;6343169;22;20089;-93
2022/03/10 09:15:32;;;;;;;19.47;13.33;;;6.10;99.90;;;;;;6370839;22;20072;-85
2022/03/10 09:17:58;;;;;;;17.75;13.32;;;6.10;99.90;;;;;;6370533;22;20018;-92
2022/03/10 09:20:24;;;;;;;17.90;12.27;;;6.30;99.90;;;;;;6343317;22;20041;-85
2022/03/10 09:22:50;;;;;;;16.60;12.17;;;6.40;99.90;;;;;;6369276;22;20026;-88
2022/03/10 09:25:16;;;;;;;24.20;13.65;;;6.60;99.90;;;;;;6341835;22;20018;-90
2022/03/10 09:27:42;;;;;;;18.97;12.20;;;6.70;99.90;;;;;;6367959;22;20011;-88
2022/03/10 09:30:10;;;;;;;19.37;12.53;;;6.80;99.90;;;;;;6368832;22;20156;-90
2022/03/10 09:32:38;;;;;;;21.40;12.13;;;6.90;99.90;;;;;;6341273;22;20014;-86
2022/03/10 09:35:06;;;;;;;21.10;12.05;;;7.10;99.60;;;;;;6342917;22;20030;-92
2022/03/10 09:37:32;;;;;;;15.90;11.40;;;7.20;98.60;;;;;;6370552;22;20014;-88
2022/03/10 09:39:58;;;;;;;15.73;11.23;;;7.30;97.90;;;;;;6342872;22;20466;-88
2022/03/10 09:42:28;;;;;;;16.43;11.03;;;7.50;97.00;;;;;;6343261;22;20084;-91
2022/03/10 09:44:59;;;;;;;17.73;12.10;;;7.50;96.10;;;;;;6343305;22;20100;-92
2022/03/10 09:47:26;;;;;;;16.65;12.05;;;7.70;95.60;;;;;;6371082;22;20019;-88
2022/03/10 09:49:52;;;;;;;16.63;10.80;;;7.80;95.50;;;;;;6371268;22;20463;-88
2022/03/10 09:52:19;;;;;;;17.73;11.82;;;7.90;95.30;;;;;;6343296;22;20082;-89
2022/03/10 09:54:45;;;;;;;16.17;11.57;;;8.10;94.90;;;;;;6342544;22;20021;-83
2022/03/10 09:57:14;;;;;;;18.50;12.13;;;8.20;94.50;;;;;;6370770;22;20019;-87
2022/03/10 10:00:08;;;;;;;20.33;11.98;;;8.30;94.30;;;;;;6342666;22;20094;-88
2022/03/10 10:02:34;;;;;;;17.65;11.85;;;8.50;94.50;;;;;;6338348;22;20347;-91
2022/03/10 10:05:00;;;;;;;18.53;12.90;;;8.60;93.90;;;;;;6344312;22;20021;-90
2022/03/10 10:07:27;;;;;;;18.27;11.90;;;8.70;93.50;;;;;;6344760;22;20340;-87
2022/03/10 10:09:56;;;;;;;17.67;12.30;;;8.80;93.10;;;;;;6372685;22;20018;-86
2022/03/10 10:12:28;;;;;;;20.80;12.65;;;9.00;92.50;;;;;;6344552;22;20068;-93
2022/03/10 10:14:55;;;;;;;16.95;12.45;;;9.10;91.70;;;;;;6318565;22;20050;-93
2022/03/10 10:17:30;;;;;;;17.70;11.88;;;9.20;91.00;;;;;;6372425;22;20010;-92
2022/03/10 10:19:59;;;;;;;16.65;12.20;;;9.40;90.40;;;;;;6372561;22;20026;-89
2022/03/10 10:22:27;;;;;;;16.83;11.73;;;9.50;89.40;;;;;;6372367;22;20523;-92
2022/03/10 10:24:55;;;;;;;17.50;11.32;;;9.60;88.30;;;;;;6344637;22;20105;-86
2022/03/10 10:27:34;;;;;;;19.25;12.23;;;9.70;86.20;;;;;;6372456;22;20068;-93
2022/03/10 10:30:06;;;;;;;17.73;11.73;;;9.80;84.90;;;;;;6345452;22;20018;-92
2022/03/10 10:32:44;;;;;;;19.90;12.20;;;10.00;84.50;;;;;;6345746;22;20018;-87
2022/03/10 10:35:26;;;;;;;16.13;11.60;;;10.10;83.10;;;;;;6377601;22;20022;-89
2022/03/10 10:37:56;;;;;;;20.23;12.32;;;10.20;81.90;;;;;;6375917;22;20018;-82
2022/03/10 10:40:24;;;;;;;19.80;12.05;;;10.30;80.90;;;;;;6356659;22;20018;-85
2022/03/10 10:42:51;;;;;;;18.15;11.80;;;10.50;79.30;;;;;;6325465;22;20042;-87
2022/03/10 10:45:32;;;;;;;17.45;12.52;;;10.60;78.80;;;;;;6318931;22;20075;-83
2022/03/10 10:48:15;;;;;;;16.27;11.38;;;10.60;77.90;;;;;;6318251;22;20063;-87
2022/03/10 10:50:46;;;;;;;17.77;11.85;;;10.70;76.20;;;;;;6346858;22;20052;-84
2022/03/10 10:53:32;;;;;;;19.20;12.10;;;10.80;75.40;;;;;;6364094;22;20045;-88
2022/03/10 10:55:58;;;;;;;18.42;12.02;;;10.90;75.50;;;;;;6350749;22;20022;-86
2022/03/10 10:58:25;;;;;;;19.87;13.23;;;11.00;74.20;;;;;;6349946;22;20025;-84
2022/03/10 11:00:51;;;;;;;17.60;12.32;;;11.00;73.90;;;;;;6352392;22;20102;-87
2022/03/10 11:03:36;;;;;;;18.90;12.20;;;11.10;73.30;;;;;;6415170;22;20013;-86
2022/03/10 11:06:01;;;;;;;17.13;12.15;;;11.20;73.60;;;;;;6385824;22;20071;-89
2022/03/10 11:08:30;;;;;;;18.03;11.73;;;11.30;73.70;;;;;;6324192;22;20022;-86
2022/03/10 11:10:56;;;;;;;18.75;12.52;;;11.40;73.30;;;;;;6295288;22;20463;-85
2022/03/10 11:13:23;;;;;;;21.30;13.18;;;11.50;73.10;;;;;;6297267;22;20019;-82
2022/03/10 11:15:51;;;;;;;18.13;12.15;;;11.50;72.50;;;;;;6297995;22;20019;-80
2022/03/10 11:18:21;;;;;;;17.45;13.05;;;11.60;71.90;;;;;;6322776;22;20063;-81
2022/03/10 11:21:17;;;;;;;17.88;11.88;;;11.70;71.70;;;;;;6322193;22;20076;-81
2022/03/10 11:24:28;;;;;;;18.05;12.55;;;11.80;71.40;;;;;;6322882;22;20221;-81
2022/03/10 11:27:22;;;;;;;17.13;11.98;;;11.90;71.20;;;;;;6289299;22;20023;-81
2022/03/10 11:29:53;;;;;;;17.60;12.43;;;12.00;69.00;;;;;;6297320;22;20108;-83
2022/03/10 11:32:28;;;;;;;18.38;12.82;;;12.10;68.50;;;;;;6323606;22;20022;-81
2022/03/10 11:37:42;;;;;;;19.15;12.57;;;12.20;68.00;;;;;;6344069;22;20023;-82
2022/03/10 11:40:42;;;;;;;17.67;12.50;;;12.20;67.50;;;;;;6322200;22;20452;-85
2022/03/10 11:43:09;;;;;;;18.40;12.80;;;12.30;67.60;;;;;;6284588;22;20022;-83
2022/03/10 11:45:35;;;;;;;17.85;12.43;;;12.40;68.60;;;;;;6320720;22;20046;-84
2022/03/10 11:48:22;;;;;;;21.43;12.07;;;12.40;67.70;;;;;;6316242;22;20019;-88
2022/03/10 11:50:50;;;;;;;17.92;12.60;;;12.50;68.00;;;;;;6292191;22;20018;-90
2022/03/10 11:53:16;;;;;;;17.70;12.00;;;12.60;67.90;;;;;;6343598;22;20031;-92
2022/03/10 11:55:51;;;;;;;18.08;12.90;;;12.60;67.90;;;;;;6344454;22;20053;-87
2022/03/10 11:58:38;;;;;;;18.38;12.38;;;12.70;67.60;;;;;;6290087;22;20019;-87
2022/03/10 12:01:04;;;;;;;18.15;12.75;;;12.70;67.30;;;;;;6318349;22;20068;-89
2022/03/10 12:03:37;;;;;;;18.40;12.70;;;12.80;67.20;;;;;;6344378;22;20019;-91
2022/03/10 12:06:08;;;;;;;19.58;13.65;;;12.70;65.10;;;;;;6342260;22;20471;-84
2022/03/10 12:08:42;;;;;;;21.58;13.35;;;12.80;64.50;;;;;;6291960;22;20022;-89
2022/03/10 12:11:15;;;;;;;20.02;13.13;;;12.80;63.90;;;;;;6345093;22;20018;-89
2022/03/10 12:13:45;;;;;;;19.02;13.48;;;12.90;62.00;;;;;;6289047;22;20065;-91
2022/03/10 12:16:22;;;;;;;17.73;12.70;;;12.90;61.70;;;;;;6290292;22;20468;-84
2022/03/10 12:18:48;;;;;;;17.60;12.85;;;12.80;62.30;;;;;;6288732;22;20065;-84
2022/03/10 12:21:26;;;;;;;18.13;12.93;;;12.90;61.80;;;;;;6313356;22;20019;-86
2022/03/10 12:23:51;;;;;;;;;;;12.90;61.60;;;;;;6315235;22;20393;-85
2022/03/10 12:26:28;;;;;;;17.58;12.65;;;13.00;62.00;;;;;;6291199;22;19937;-86
2022/03/10 12:28:55;;;;;;;18.38;12.20;;;13.00;61.50;;;;;;6317922;22;20486;-90
2022/03/10 12:31:24;;;;;;;19.30;13.93;;;13.00;61.00;;;;;;6315740;22;20014;-91
2022/03/10 12:33:52;;;;;;;19.23;12.98;;;13.10;61.20;;;;;;6293038;22;20023;-89
2022/03/10 12:36:35;;;;;;;18.65;13.40;;;13.10;61.00;;;;;;6288047;22;20071;-85
2022/03/10 12:39:11;;;;;;;21.20;13.27;;;13.10;60.90;;;;;;6267488;22;20023;-84
2022/03/10 12:41:42;;;;;;;19.75;13.02;;;13.20;61.40;;;;;;6311361;22;20019;-88
2022/03/10 12:44:13;;;;;;;20.10;13.02;;;13.20;61.40;;;;;;6308967;22;20098;-82
2022/03/10 12:46:41;;;;;;;18.70;13.20;;;13.20;60.00;;;;;;6286776;22;20064;-85
2022/03/10 12:49:22;;;;;;;19.73;13.07;;;13.30;59.80;;;;;;6289466;22;20023;-80
2022/03/10 12:51:48;;;;;;;21.73;14.18;;;13.30;60.30;;;;;;6313256;22;20020;-82
2022/03/10 12:54:14;;;;;;;18.60;13.15;;;13.30;60.50;;;;;;6313818;22;20582;-83